Observation data for Levelland on 11/11/2019      Previous  Date       Current Mesonet Observations  Soil Data  Daily Summary Page  Observations in Plain Language
KLD1 110600Z 25010KT 14/08 A2989 RMK A01 T01400080  RH  069%=      5-min Rain = 0
KLD1 110605Z 25010KT 14/08 A2988 RMK A01 T01400081  RH  069%=      5-min Rain = 0
KLD1 110610Z 25010KT 14/08 A2988 RMK A01 T01390081  RH  070%=      5-min Rain = 0
KLD1 110615Z 24010KT 14/08 A2988 RMK A01 T01370080  RH  071%=      5-min Rain = 0
KLD1 110620Z 24010KT 14/08 A2988 RMK A01 T01350081  RH  071%=      5-min Rain = 0
KLD1 110625Z 25010KT 14/08 A2988 RMK A01 T01370081  RH  071%=      5-min Rain = 0
KLD1 110630Z 24010KT 14/08 A2988 RMK A01 T01380081  RH  071%=      5-min Rain = 0
KLD1 110635Z 24011KT 14/08 A2988 RMK A01 T01360081  RH  071%=      5-min Rain = 0
KLD1 110640Z 24011KT 14/08 A2988 RMK A01 T01380081  RH  071%=      5-min Rain = 0
KLD1 110645Z 24011KT 14/08 A2988 RMK A01 T01370081  RH  071%=      5-min Rain = 0
KLD1 110650Z 24011KT 14/08 A2988 RMK A01 T01370082  RH  071%=      5-min Rain = 0
KLD1 110655Z 25011KT 14/08 A2988 RMK A01 T01380082  RH  071%=      5-min Rain = 0
KLD1 110700Z 24011KT 14/08 A2988 RMK A01 T01380082  RH  071%=      5-min Rain = 0
KLD1 110705Z 24012KT 14/08 A2988 RMK A01 T01400082  RH  070%=      5-min Rain = 0
KLD1 110710Z 24012KT 14/08 A2988 RMK A01 T01400082  RH  070%=      5-min Rain = 0
KLD1 110715Z 24011KT 14/08 A2988 RMK A01 T01410082  RH  070%=      5-min Rain = 0
KLD1 110720Z 24010KT 14/08 A2989 RMK A01 T01400082  RH  070%=      5-min Rain = 0
KLD1 110725Z 24009KT 14/08 A2989 RMK A01 T01390082  RH  071%=      5-min Rain = 0
KLD1 110730Z 25007KT 14/08 A2989 RMK A01 T01360082  RH  072%=      5-min Rain = 0
KLD1 110735Z 26006KT 13/08 A2989 RMK A01 T01300081  RH  074%=      5-min Rain = 0
KLD1 110740Z 27006KT 13/08 A2989 RMK A01 T01260080  RH  076%=      5-min Rain = 0
KLD1 110745Z 27007KT 12/08 A2989 RMK A01 T01230080  RH  077%=      5-min Rain = 0
KLD1 110750Z 28006KT 12/08 A2989 RMK A01 T01220081  RH  078%=      5-min Rain = 0
KLD1 110755Z 29007KT 12/08 A2989 RMK A01 T01230082  RH  078%=      5-min Rain = 0
KLD1 110800Z 29006KT 12/08 A299 RMK A01 T01200080  RH  079%=      5-min Rain = 0
KLD1 110805Z 28006KT 12/08 A299 RMK A01 T01180080  RH  080%=      5-min Rain = 0
KLD1 110810Z 29006KT 12/08 A299 RMK A01 T01180081  RH  080%=      5-min Rain = 0
KLD1 110815Z 31006KT 12/08 A299 RMK A01 T01170080  RH  081%=      5-min Rain = 0
KLD1 110820Z 29007KT 12/08 A299 RMK A01 T01180081  RH  081%=      5-min Rain = 0
KLD1 110825Z 30007KT 12/08 A299 RMK A01 T01200082  RH  080%=      5-min Rain = 0
KLD1 110830Z 29006KT 12/08 A299 RMK A01 T01200083  RH  080%=      5-min Rain = 0
KLD1 110835Z 28007KT 12/08 A299 RMK A01 T01210083  RH  080%=      5-min Rain = 0
KLD1 110840Z 30007KT 13/08 A2991 RMK A01 T01250084  RH  078%=      5-min Rain = 0
KLD1 110845Z 31008KT 12/08 A2991 RMK A01 T01230083  RH  079%=      5-min Rain = 0
KLD1 110850Z 30008KT 12/08 A2991 RMK A01 T01230084  RH  079%=      5-min Rain = 0
KLD1 110855Z 30008KT 12/08 A2991 RMK A01 T01240084  RH  079%=      5-min Rain = 0
KLD1 110900Z 31008KT 13/08 A2991 RMK A01 T01250084  RH  078%=      5-min Rain = 0
KLD1 110905Z 32008KT 13/09 A2992 RMK A01 T01270085  RH  078%=      5-min Rain = 0
KLD1 110910Z 31009KT 13/08 A2992 RMK A01 T01330083  RH  074%=      5-min Rain = 0
KLD1 110915Z 30011KT 14/08 A2992 RMK A01 T01380078  RH  069%=      5-min Rain = 0
KLD1 110920Z 32011KT 14/07 A2993 RMK A01 T01380073  RH  066%=      5-min Rain = 0
KLD1 110925Z 32010KT 14/07 A2993 RMK A01 T01350070  RH  066%=      5-min Rain = 0
KLD1 110930Z 32009KT 13/07 A2993 RMK A01 T01320068  RH  067%=      5-min Rain = 0
KLD1 110935Z 32010KT 13/07 A2994 RMK A01 T01300065  RH  066%=      5-min Rain = 0
KLD1 110940Z 32012KT 13/06 A2994 RMK A01 T01310059  RH  063%=      5-min Rain = 0
KLD1 110945Z 32012G17KT 13/05 A2995 RMK A01 T01280054  RH  062%=      5-min Rain = 0
KLD1 110950Z 33015KT 13/05 A2995 RMK A01 T01250047  RH  060%=      5-min Rain = 0
KLD1 110955Z 34017KT 12/04 A2996 RMK A01 T01200036  RH  058%=      5-min Rain = 0
KLD1 111000Z 35017G24KT 11/03 A2996 RMK A01 T01130028  RH  057%=      5-min Rain = 0
KLD1 111005Z 35016G21KT 11/03 A2997 RMK A01 T01090025  RH  057%=      5-min Rain = 0
KLD1 111010Z 35015KT 11/02 A2998 RMK A01 T01060024  RH  058%=      5-min Rain = 0
KLD1 111015Z 35017G23KT 10/02 A2998 RMK A01 T01020024  RH  059%=      5-min Rain = 0
KLD1 111020Z 35022G32KT 10/02 A2999 RMK A01 T00960019  RH  060%=      5-min Rain = 0
KLD1 111025Z 36021KT 09/02 A2999 RMK A01 T00900019  RH  062%=      5-min Rain = 0
KLD1 111030Z 36019G25KT 09/02 A30 RMK A01 T00870019  RH  063%=      5-min Rain = 0
KLD1 111035Z 36020G25KT 08/02 A30 RMK A01 T00840019  RH  065%=      5-min Rain = 0
KLD1 111040Z 00021G26KT 08/02 A3001 RMK A01 T00800019  RH  066%=      5-min Rain = 0
KLD1 111045Z 35021G27KT 08/02 A3001 RMK A01 T00760018  RH  068%=      5-min Rain = 0
KLD1 111050Z 36022G28KT 07/02 A3002 RMK A01 T00720017  RH  069%=      5-min Rain = 0
KLD1 111055Z 00021G26KT 07/02 A3002 RMK A01 T00710017  RH  070%=      5-min Rain = 0
KLD1 111100Z 00020G26KT 07/02 A3002 RMK A01 T00690017  RH  071%=      5-min Rain = 0
KLD1 111105Z 00024G31KT 07/02 A3003 RMK A01 T00670017  RH  071%=      5-min Rain = 0
KLD1 111110Z 00019G26KT 07/02 A3004 RMK A01 T00660017  RH  072%=      5-min Rain = 0
KLD1 111115Z 00023G32KT 06/02 A3005 RMK A01 T00640018  RH  073%=      5-min Rain = 0
KLD1 111120Z 00022G27KT 06/02 A3006 RMK A01 T00620018  RH  075%=      5-min Rain = 0
KLD1 111125Z 00019KT 06/02 A3006 RMK A01 T00610018  RH  075%=      5-min Rain = 0
KLD1 111130Z 00018KT 06/02 A3006 RMK A01 T00600019  RH  076%=      5-min Rain = 0
KLD1 111135Z 36021G28KT 06/02 A3007 RMK A01 T00590019  RH  077%=      5-min Rain = 0
KLD1 111140Z 00024G31KT 06/02 A3008 RMK A01 T00570021  RH  078%=      5-min Rain = 0
KLD1 111145Z 00021G26KT 06/02 A3008 RMK A01 T00580023  RH  079%=      5-min Rain = 0
KLD1 111150Z 01024G33KT 06/02 A3009 RMK A01 T00580024  RH  080%=      5-min Rain = 0
KLD1 111155Z 01021G27KT 06/02 A3009 RMK A01 T00580024  RH  080%=      5-min Rain = 0
KLD1 111200Z 00020G27KT 06/03 A3009 RMK A01 T00580025  RH  080%=      5-min Rain = 0
KLD1 111205Z 00023G30KT 06/02 A301 RMK A01 T00580024  RH  080%=      5-min Rain = 0
KLD1 111210Z 00023G29KT 06/02 A301 RMK A01 T00550022  RH  081%=      5-min Rain = 0
KLD1 111215Z 00024G30KT 05/02 A3011 RMK A01 T00540022  RH  081%=      5-min Rain = 0
KLD1 111220Z 35024G33KT 05/02 A3012 RMK A01 T00480018  RH  082%=      5-min Rain = 0
KLD1 111225Z 36025G31KT 04/02 A3012 RMK A01 T00430016  RH  084%=      5-min Rain = 0
KLD1 111230Z 01028G34KT 04/01 A3012 RMK A01 T00390014  RH  085%=      5-min Rain = 0
KLD1 111235Z 36028G36KT 03/01 A3013 RMK A01 T00330009  RH  085%=      5-min Rain = 0
KLD1 111240Z 36026G32KT 03/01 A3014 RMK A01 T00290006  RH  085%=      5-min Rain = 0
KLD1 111245Z 01028G35KT 03/00 A3014 RMK A01 T00280004  RH  085%=      5-min Rain = 0
KLD1 111250Z 01027G33KT 03/00 A3014 RMK A01 T00250001  RH  085%=      5-min Rain = 0
KLD1 111255Z 00028G33KT 02/00 A3015 RMK A01 T002300-0  RH  085%=      5-min Rain = 0
KLD1 111300Z 00029G40KT 02/M01 A3017 RMK A01 T00171007  RH  085%=      5-min Rain = 0
KLD1 111305Z 36030G37KT 01/M01 A3017 RMK A01 T00121012  RH  085%=      5-min Rain = 0
KLD1 111310Z 00026G34KT 01/M01 A3017 RMK A01 T00111012  RH  086%=      5-min Rain = 0
KLD1 111315Z 01023G31KT 01/M01 A3018 RMK A01 T00111011  RH  086%=      5-min Rain = 0
KLD1 111320Z 01024G32KT 01/M01 A3019 RMK A01 T00091013  RH  086%=      5-min Rain = 0
KLD1 111325Z 00028G37KT 01/M02 A3019 RMK A01 T00061019  RH  084%=      5-min Rain = 0
KLD1 111330Z 01028G35KT 00/M02 A302 RMK A01 T00031022  RH  084%=      5-min Rain = 0
KLD1 111335Z 01026G33KT 00/M02 A302 RMK A01 T00041022  RH  084%=      5-min Rain = 0
KLD1 111340Z 01027G34KT 00/M02 A302 RMK A01 T00031022  RH  084%=      5-min Rain = 0
KLD1 111345Z 01026G32KT 00/M02 A302 RMK A01 T00021023  RH  084%=      5-min Rain = 0
KLD1 111350Z 01026G34KT 00/M02 A302 RMK A01 T00021023  RH  084%=      5-min Rain = 0
KLD1 111355Z 01026G34KT 00/M02 A302 RMK A01 T00011023  RH  084%=      5-min Rain = 0
KLD1 111400Z 01026G37KT 00/02 A3021 RMK A01 T00000-24  RH  084%=      5-min Rain = 0
KLD1 111405Z 02028G36KT M00/M03 A3021 RMK A01 T10011025  RH  084%=      5-min Rain = 0
KLD1 111410Z 01028G36KT M00/M03 A3022 RMK A01 T10011025  RH  084%=      5-min Rain = 0
KLD1 111415Z 01026G34KT 00/03 A3022 RMK A01 T00-00-25  RH  084%=      5-min Rain = 0
KLD1 111420Z 02027G33KT 00/03 A3023 RMK A01 T00-00-25  RH  084%=      5-min Rain = 0
KLD1 111425Z 01027G34KT M00/M03 A3024 RMK A01 T10011025  RH  084%=      5-min Rain = 0
KLD1 111430Z 01028G35KT M00/M03 A3024 RMK A01 T10011026  RH  084%=      5-min Rain = 0
KLD1 111435Z 01028G36KT M00/M03 A3025 RMK A01 T10021027  RH  084%=      5-min Rain = 0
KLD1 111440Z 01027G36KT M00/M03 A3025 RMK A01 T10021027  RH  084%=      5-min Rain = 0
KLD1 111445Z 01025G33KT M00/M03 A3026 RMK A01 T10021026  RH  084%=      5-min Rain = 0
KLD1 111450Z 01024G39KT M00/M03 A3027 RMK A01 T10041028  RH  084%=      5-min Rain = 0
KLD1 111455Z 02030G38KT M01/M04 A3027 RMK A01 T10091037  RH  081%=      5-min Rain = 0
KLD1 111500Z 02028G36KT M01/M04 A3028 RMK A01 T10111038  RH  083%=      5-min Rain = 0
KLD1 111505Z 02026G37KT M01/M04 A3029 RMK A01 T10121038  RH  083%=      5-min Rain = 0
KLD1 111510Z 02023G29KT M01/M04 A303 RMK A01 T10131038  RH  083%=      5-min Rain = 0
KLD1 111515Z 00024G31KT M01/M04 A3031 RMK A01 T10131038  RH  083%=      5-min Rain = 0
KLD1 111520Z 01028G36KT M02/M04 A3031 RMK A01 T10151041  RH  083%=      5-min Rain = 0
KLD1 111525Z 01030G36KT M02/M04 A3032 RMK A01 T10181043  RH  083%=      5-min Rain = 0
KLD1 111530Z 02025G36KT M02/M04 A3033 RMK A01 T10171043  RH  083%=      5-min Rain = 0
KLD1 111535Z 02028G35KT M02/M04 A3033 RMK A01 T10181044  RH  082%=      5-min Rain = 0
KLD1 111540Z 02027G34KT M02/M04 A3034 RMK A01 T10171044  RH  082%=      5-min Rain = 0
KLD1 111545Z 02026G32KT M02/M05 A3034 RMK A01 T10181046  RH  081%=      5-min Rain = 0
KLD1 111550Z 02025G34KT M02/M05 A3034 RMK A01 T10171046  RH  081%=      5-min Rain = 0
KLD1 111555Z 01029G36KT M02/M05 A3035 RMK A01 T10191047  RH  081%=      5-min Rain = 0
KLD1 111600Z 02029G38KT M03/M06 A3036 RMK A01 T10251055  RH  080%=      5-min Rain = 0
KLD1 111605Z 02028G36KT M03/M06 A3036 RMK A01 T10261056  RH  080%=      5-min Rain = 0
KLD1 111610Z 01026G34KT M03/M06 A3036 RMK A01 T10261055  RH  081%=      5-min Rain = 0
KLD1 111615Z 01026G32KT M03/M05 A3036 RMK A01 T10251053  RH  081%=      5-min Rain = 0
KLD1 111620Z 00025G33KT M02/M05 A3036 RMK A01 T10241053  RH  081%=      5-min Rain = 0
KLD1 111625Z 01025G33KT M02/M05 A3037 RMK A01 T10221052  RH  081%=      5-min Rain = 0
KLD1 111630Z 01031G39KT M03/M06 A3037 RMK A01 T10271059  RH  078%=      5-min Rain = 0
KLD1 111635Z 01026G34KT M03/M06 A3037 RMK A01 T10291062  RH  078%=      5-min Rain = 0
KLD1 111640Z 01026G33KT M03/M06 A3038 RMK A01 T10301062  RH  078%=      5-min Rain = 0
KLD1 111645Z 01027G36KT M03/M06 A3038 RMK A01 T10291061  RH  079%=      5-min Rain = 0
KLD1 111650Z 01027G33KT M03/M06 A3039 RMK A01 T10281061  RH  079%=      5-min Rain = 0
KLD1 111655Z 01028G35KT M03/M06 A3039 RMK A01 T10291062  RH  078%=      5-min Rain = 0
KLD1 111700Z 01025G32KT M03/M06 A3039 RMK A01 T10271061  RH  077%=      5-min Rain = 0
KLD1 111705Z 01027G36KT M03/M06 A3039 RMK A01 T10261062  RH  077%=      5-min Rain = 0
KLD1 111710Z 01027G33KT M03/M06 A3039 RMK A01 T10251061  RH  076%=      5-min Rain = 0
KLD1 111715Z 01029G35KT M03/M06 A3039 RMK A01 T10251062  RH  076%=      5-min Rain = 0
KLD1 111720Z 01027G35KT M03/M06 A3039 RMK A01 T10251063  RH  076%=      5-min Rain = 0
KLD1 111725Z 01028G37KT M03/M06 A3039 RMK A01 T10251063  RH  075%=      5-min Rain = 0
KLD1 111730Z 01026G33KT M03/M06 A3039 RMK A01 T10251062  RH  075%=      5-min Rain = 0
KLD1 111735Z 01027G33KT M03/M06 A3039 RMK A01 T10251063  RH  075%=      5-min Rain = 0
KLD1 111740Z 01024G35KT M02/M06 A304 RMK A01 T10241063  RH  075%=      5-min Rain = 0
KLD1 111745Z 01028G35KT M03/M07 A304 RMK A01 T10251066  RH  074%=      5-min Rain = 0
KLD1 111750Z 02026G35KT M03/M07 A3041 RMK A01 T10261067  RH  073%=      5-min Rain = 0
KLD1 111755Z 02026G32KT M03/M07 A3041 RMK A01 T10261068  RH  073%=      5-min Rain = 0
KLD1 111800Z 01026G35KT M03/M07 A3041 RMK A01 T10261068  RH  073%=      5-min Rain = 0
KLD1 111805Z 01025G31KT M03/M07 A3041 RMK A01 T10271068  RH  073%=      5-min Rain = 0
KLD1 111810Z 01027G36KT M03/M07 A3041 RMK A01 T10261068  RH  073%=      5-min Rain = 0
KLD1 111815Z 01029G38KT M03/M07 A3041 RMK A01 T10291071  RH  073%=      5-min Rain = 0
KLD1 111820Z 01025G33KT M03/M07 A3041 RMK A01 T10281071  RH  073%=      5-min Rain = 0
KLD1 111825Z 01024G30KT M03/M07 A3041 RMK A01 T10291071  RH  073%=      5-min Rain = 0
KLD1 111830Z 01026G32KT M03/M07 A304 RMK A01 T10281072  RH  072%=      5-min Rain = 0
KLD1 111835Z 01026G32KT M03/M07 A3039 RMK A01 T10281072  RH  072%=      5-min Rain = 0
KLD1 111840Z 01024G31KT M03/M07 A3039 RMK A01 T10271073  RH  071%=      5-min Rain = 0
KLD1 111845Z 01024G30KT M03/M07 A304 RMK A01 T10291074  RH  071%=      5-min Rain = 0
KLD1 111850Z 01024G31KT M03/M08 A304 RMK A01 T10301075  RH  071%=      5-min Rain = 0
KLD1 111855Z 01027G33KT M03/M08 A304 RMK A01 T10311077  RH  070%=      5-min Rain = 0
KLD1 111900Z 01025G33KT M03/M08 A304 RMK A01 T10301078  RH  069%=      5-min Rain = 0
KLD1 111905Z 01025G36KT M03/M08 A304 RMK A01 T10281079  RH  068%=      5-min Rain = 0
KLD1 111910Z 01028G35KT M03/M08 A304 RMK A01 T10311083  RH  067%=      5-min Rain = 0
KLD1 111915Z 01026G32KT M03/M08 A304 RMK A01 T10301083  RH  067%=      5-min Rain = 0
KLD1 111920Z 02024G33KT M03/M08 A304 RMK A01 T10291083  RH  066%=      5-min Rain = 0
KLD1 111925Z 02023G28KT M03/M08 A304 RMK A01 T10261080  RH  066%=      5-min Rain = 0
KLD1 111930Z 02025G31KT M03/M08 A304 RMK A01 T10251080  RH  066%=      5-min Rain = 0
KLD1 111935Z 01020G27KT M02/M08 A3041 RMK A01 T10221076  RH  066%=      5-min Rain = 0
KLD1 111940Z 00023KT M03/M08 A3041 RMK A01 T10251078  RH  067%=      5-min Rain = 0
KLD1 111945Z 01023G30KT M03/M08 A3041 RMK A01 T10261078  RH  067%=      5-min Rain = 0
KLD1 111950Z 01024G30KT M02/M08 A3042 RMK A01 T10241080  RH  065%=      5-min Rain = 0
KLD1 111955Z 02023G30KT M03/M08 A3042 RMK A01 T10251082  RH  064%=      5-min Rain = 0
KLD1 112000Z 01021G28KT M02/M08 A3042 RMK A01 T10241082  RH  064%=      5-min Rain = 0
KLD1 112005Z 01022G29KT M02/M08 A3042 RMK A01 T10231083  RH  064%=      5-min Rain = 0
KLD1 112010Z 00024G30KT M03/M09 A3042 RMK A01 T10261085  RH  064%=      5-min Rain = 0
KLD1 112015Z 01022G27KT M03/M09 A3042 RMK A01 T10261085  RH  064%=      5-min Rain = 0
KLD1 112020Z 01024G31KT M02/M08 A3042 RMK A01 T10231084  RH  063%=      5-min Rain = 0
KLD1 112025Z 01022G28KT M02/M09 A3042 RMK A01 T10231085  RH  062%=      5-min Rain = 0
KLD1 112030Z 01024G31KT M02/M09 A3043 RMK A01 T10221087  RH  061%=      5-min Rain = 0
KLD1 112035Z 02028G34KT M02/M09 A3043 RMK A01 T10231090  RH  060%=      5-min Rain = 0
KLD1 112040Z 02025G30KT M02/M09 A3043 RMK A01 T10231090  RH  060%=      5-min Rain = 0
KLD1 112045Z 01024G30KT M02/M09 A3044 RMK A01 T10231091  RH  059%=      5-min Rain = 0
KLD1 112050Z 02022G28KT M02/M09 A3044 RMK A01 T10221091  RH  059%=      5-min Rain = 0
KLD1 112055Z 01022G28KT M02/M09 A3044 RMK A01 T10231092  RH  059%=      5-min Rain = 0
KLD1 112100Z 02023G28KT M02/M09 A3044 RMK A01 T10211093  RH  058%=      5-min Rain = 0
KLD1 112105Z 01024G29KT M02/M09 A3044 RMK A01 T10191092  RH  058%=      5-min Rain = 0
KLD1 112110Z 01021G28KT M02/M09 A3044 RMK A01 T10191092  RH  057%=      5-min Rain = 0
KLD1 112115Z 02021G27KT M02/M09 A3044 RMK A01 T10171091  RH  057%=      5-min Rain = 0
KLD1 112120Z 01022G28KT M02/M09 A3044 RMK A01 T10181091  RH  057%=      5-min Rain = 0
KLD1 112125Z 00021KT M02/M09 A3045 RMK A01 T10171091  RH  057%=      5-min Rain = 0
KLD1 112130Z 02023G29KT M02/M09 A3046 RMK A01 T10181093  RH  056%=      5-min Rain = 0
KLD1 112135Z 01022G27KT M02/M09 A3047 RMK A01 T10201094  RH  057%=      5-min Rain = 0
KLD1 112140Z 02020KT M02/M09 A3048 RMK A01 T10201093  RH  057%=      5-min Rain = 0
KLD1 112145Z 01017G22KT M02/M09 A3048 RMK A01 T10181090  RH  057%=      5-min Rain = 0
KLD1 112150Z 01017G22KT M02/M09 A3048 RMK A01 T10161089  RH  057%=      5-min Rain = 0
KLD1 112155Z 01020G25KT M02/M09 A3048 RMK A01 T10161088  RH  057%=      5-min Rain = 0
KLD1 112200Z 01019G25KT M02/M09 A3048 RMK A01 T10171089  RH  058%=      5-min Rain = 0
KLD1 112205Z 01019KT M02/M09 A3047 RMK A01 T10171088  RH  058%=      5-min Rain = 0
KLD1 112210Z 01018G24KT M02/M09 A3047 RMK A01 T10161088  RH  058%=      5-min Rain = 0
KLD1 112215Z 02019KT M02/M09 A3047 RMK A01 T10161089  RH  057%=      5-min Rain = 0
KLD1 112220Z 02018G23KT M02/M09 A3047 RMK A01 T10161089  RH  057%=      5-min Rain = 0
KLD1 112225Z 02016G21KT M02/M09 A3047 RMK A01 T10151088  RH  057%=      5-min Rain = 0
KLD1 112230Z 01019KT M02/M09 A3047 RMK A01 T10151089  RH  057%=      5-min Rain = 0
KLD1 112235Z 01018G24KT M02/M09 A3047 RMK A01 T10151088  RH  057%=      5-min Rain = 0
KLD1 112240Z 00018KT M01/M09 A3047 RMK A01 T10141088  RH  057%=      5-min Rain = 0
KLD1 112245Z 01019KT M01/M09 A3047 RMK A01 T10121087  RH  057%=      5-min Rain = 0
KLD1 112250Z 01019KT M01/M09 A3047 RMK A01 T10121088  RH  056%=      5-min Rain = 0
KLD1 112255Z 01019G26KT M01/M09 A3047 RMK A01 T10121090  RH  055%=      5-min Rain = 0
KLD1 112300Z 01019G24KT M01/M09 A3047 RMK A01 T10121090  RH  055%=      5-min Rain = 0
KLD1 112305Z 01018G23KT M01/M09 A3048 RMK A01 T10111090  RH  055%=      5-min Rain = 0
KLD1 112310Z 01017G23KT M01/M09 A3048 RMK A01 T10111090  RH  055%=      5-min Rain = 0
KLD1 112315Z 01018G24KT M01/M09 A3047 RMK A01 T10121091  RH  055%=      5-min Rain = 0
KLD1 112320Z 01019G25KT M01/M09 A3048 RMK A01 T10111091  RH  054%=      5-min Rain = 0
KLD1 112325Z 01020G26KT M01/M09 A3048 RMK A01 T10111091  RH  054%=      5-min Rain = 0
KLD1 112330Z 01019KT M01/M09 A3049 RMK A01 T10121092  RH  054%=      5-min Rain = 0
KLD1 112335Z 01018G24KT M01/M09 A3049 RMK A01 T10121092  RH  055%=      5-min Rain = 0
KLD1 112340Z 01021KT M01/M09 A3049 RMK A01 T10131093  RH  055%=      5-min Rain = 0
KLD1 112345Z 02019G24KT M01/M09 A305 RMK A01 T10141093  RH  055%=      5-min Rain = 0
KLD1 112350Z 01018G23KT M01/M09 A305 RMK A01 T10141093  RH  055%=      5-min Rain = 0
KLD1 112355Z 01019G24KT M02/M09 A3051 RMK A01 T10151093  RH  055%=      5-min Rain = 0
KLD1 120000Z 02017G22KT M02/M09 A3051 RMK A01 T10151094  RH  055%=      5-min Rain = 0
KLD1 120005Z 02014G19KT M02/M09 A3051 RMK A01 T10161093  RH  055%=      5-min Rain = 0
KLD1 120010Z 01015KT M02/M09 A3051 RMK A01 T10161093  RH  056%=      5-min Rain = 0
KLD1 120015Z 01013KT M02/M09 A3051 RMK A01 T10161092  RH  056%=      5-min Rain = 0
KLD1 120020Z 01013KT M02/M09 A3052 RMK A01 T10171092  RH  057%=      5-min Rain = 0
KLD1 120025Z 02013KT M02/M09 A3052 RMK A01 T10171092  RH  057%=      5-min Rain = 0
KLD1 120030Z 02013G18KT M02/M09 A3052 RMK A01 T10181092  RH  057%=      5-min Rain = 0
KLD1 120035Z 01013G19KT M02/M09 A3052 RMK A01 T10171092  RH  057%=      5-min Rain = 0
KLD1 120040Z 01015KT M02/M09 A3052 RMK A01 T10181091  RH  057%=      5-min Rain = 0
KLD1 120045Z 01015KT M02/M09 A3052 RMK A01 T10181092  RH  057%=      5-min Rain = 0
KLD1 120050Z 01015KT M02/M09 A3052 RMK A01 T10181093  RH  057%=      5-min Rain = 0
KLD1 120055Z 01015KT M02/M09 A3052 RMK A01 T10191093  RH  057%=      5-min Rain = 0
KLD1 120100Z 02016G21KT M02/M09 A3053 RMK A01 T10191093  RH  057%=      5-min Rain = 0
KLD1 120105Z 02017G23KT M02/M09 A3053 RMK A01 T10191094  RH  057%=      5-min Rain = 0
KLD1 120110Z 01016KT M02/M10 A3053 RMK A01 T10201095  RH  056%=      5-min Rain = 0
KLD1 120115Z 01016KT M02/M10 A3053 RMK A01 T10201095  RH  056%=      5-min Rain = 0
KLD1 120120Z 01015G21KT M02/M10 A3053 RMK A01 T10211096  RH  057%=      5-min Rain = 0
KLD1 120125Z 02015G21KT M02/M10 A3054 RMK A01 T10221097  RH  056%=      5-min Rain = 0
KLD1 120130Z 01015G20KT M02/M10 A3054 RMK A01 T10221097  RH  056%=      5-min Rain = 0
KLD1 120135Z 01016KT M02/M10 A3055 RMK A01 T10231099  RH  056%=      5-min Rain = 0
KLD1 120140Z 02015G22KT M02/M10 A3055 RMK A01 T10241100  RH  056%=      5-min Rain = 0
KLD1 120145Z 01018KT M03/M11 A3055 RMK A01 T10261108  RH  053%=      5-min Rain = 0
KLD1 120150Z 02017KT M03/M11 A3055 RMK A01 T10271110  RH  053%=      5-min Rain = 0
KLD1 120155Z 02016G21KT M03/M11 A3055 RMK A01 T10281113  RH  052%=      5-min Rain = 0
KLD1 120200Z 02018KT M03/M12 A3055 RMK A01 T10291117  RH  050%=      5-min Rain = 0
KLD1 120205Z 02017G22KT M03/M12 A3054 RMK A01 T10301119  RH  050%=      5-min Rain = 0
KLD1 120210Z 02018KT M03/M12 A3054 RMK A01 T10311120  RH  050%=      5-min Rain = 0
KLD1 120215Z 02015KT M03/M12 A3055 RMK A01 T10321121  RH  050%=      5-min Rain = 0
KLD1 120220Z 02015KT M03/M12 A3055 RMK A01 T10331120  RH  050%=      5-min Rain = 0
KLD1 120225Z 02013G18KT M03/M12 A3055 RMK A01 T10331120  RH  051%=      5-min Rain = 0
KLD1 120230Z 02012KT M03/M12 A3055 RMK A01 T10341120  RH  051%=      5-min Rain = 0
KLD1 120235Z 02013G18KT M03/M12 A3056 RMK A01 T10341121  RH  051%=      5-min Rain = 0
KLD1 120240Z 02012KT M04/M12 A3056 RMK A01 T10351121  RH  051%=      5-min Rain = 0
KLD1 120245Z 02013KT M04/M12 A3055 RMK A01 T10361120  RH  052%=      5-min Rain = 0
KLD1 120250Z 02012KT M04/M12 A3056 RMK A01 T10361120  RH  052%=      5-min Rain = 0
KLD1 120255Z 02011G16KT M04/M12 A3056 RMK A01 T10371120  RH  052%=      5-min Rain = 0
KLD1 120300Z 02011KT M04/M12 A3056 RMK A01 T10371119  RH  053%=      5-min Rain = 0
KLD1 120305Z 02010KT M04/M12 A3057 RMK A01 T10381118  RH  053%=      5-min Rain = 0
KLD1 120310Z 01009KT M04/M12 A3057 RMK A01 T10381118  RH  054%=      5-min Rain = 0
KLD1 120315Z 01010KT M04/M12 A3057 RMK A01 T10391118  RH  054%=      5-min Rain = 0
KLD1 120320Z 01010KT M04/M12 A3057 RMK A01 T10401118  RH  054%=      5-min Rain = 0
KLD1 120325Z 01010KT M04/M12 A3057 RMK A01 T10391119  RH  054%=      5-min Rain = 0
KLD1 120330Z 01010KT M04/M12 A3058 RMK A01 T10401118  RH  054%=      5-min Rain = 0
KLD1 120335Z 01009KT M04/M12 A3058 RMK A01 T10411118  RH  055%=      5-min Rain = 0
KLD1 120340Z 01009KT M04/M12 A3058 RMK A01 T10411117  RH  055%=      5-min Rain = 0
KLD1 120345Z 01008KT M04/M12 A3058 RMK A01 T10421117  RH  055%=      5-min Rain = 0
KLD1 120350Z 01008KT M04/M12 A3058 RMK A01 T10431117  RH  056%=      5-min Rain = 0
KLD1 120355Z 02007KT M04/M12 A3059 RMK A01 T10431116  RH  057%=      5-min Rain = 0
KLD1 120400Z 01008KT M04/M12 A3059 RMK A01 T10441116  RH  057%=      5-min Rain = 0
KLD1 120405Z 01008KT M04/M12 A3059 RMK A01 T10441116  RH  057%=      5-min Rain = 0
KLD1 120410Z 01009KT M04/M12 A3059 RMK A01 T10441116  RH  057%=      5-min Rain = 0
KLD1 120415Z 01008KT M05/M12 A3059 RMK A01 T10451117  RH  057%=      5-min Rain = 0
KLD1 120420Z 01007KT M05/M12 A3059 RMK A01 T10461116  RH  058%=      5-min Rain = 0
KLD1 120425Z 01008KT M05/M12 A3059 RMK A01 T10461116  RH  058%=      5-min Rain = 0
KLD1 120430Z 01007KT M05/M12 A3059 RMK A01 T10471115  RH  058%=      5-min Rain = 0
KLD1 120435Z 01008G15KT M05/M12 A3059 RMK A01 T10481115  RH  059%=      5-min Rain = 0
KLD1 120440Z 02010KT M05/M12 A3059 RMK A01 T10461118  RH  057%=      5-min Rain = 0
KLD1 120445Z 01010KT M05/M12 A3059 RMK A01 T10461119  RH  056%=      5-min Rain = 0
KLD1 120450Z 01010KT M05/M12 A3058 RMK A01 T10471119  RH  057%=      5-min Rain = 0
KLD1 120455Z 01012KT M05/M12 A3059 RMK A01 T10471123  RH  055%=      5-min Rain = 0
KLD1 120500Z 01010KT M05/M12 A3059 RMK A01 T10471123  RH  055%=      5-min Rain = 0
KLD1 120505Z 01010KT M05/M12 A3059 RMK A01 T10481124  RH  055%=      5-min Rain = 0
KLD1 120510Z 01010KT M05/M12 A3059 RMK A01 T10491122  RH  056%=      5-min Rain = 0
KLD1 120515Z 01008KT M05/M12 A3059 RMK A01 T10501121  RH  057%=      5-min Rain = 0
KLD1 120520Z 01008KT M05/M12 A3059 RMK A01 T10511122  RH  057%=      5-min Rain = 0
KLD1 120525Z 01007KT M05/M12 A3059 RMK A01 T10511121  RH  057%=      5-min Rain = 0
KLD1 120530Z 01008KT M05/M12 A3059 RMK A01 T10511121  RH  058%=      5-min Rain = 0
KLD1 120535Z 01007KT M05/M12 A3059 RMK A01 T10521121  RH  058%=      5-min Rain = 0
KLD1 120540Z 01007KT M05/M12 A3059 RMK A01 T10531121  RH  058%=      5-min Rain = 0
KLD1 120545Z 01008KT M05/M12 A3059 RMK A01 T10531121  RH  059%=      5-min Rain = 0
KLD1 120550Z 01006KT M05/M12 A306 RMK A01 T10541120  RH  060%=      5-min Rain = 0
KLD1 120555Z 01007KT M06/M12 A306 RMK A01 T10551120  RH  060%=      5-min Rain = 0

Page generated in 0.0091 seconds.